sensor_id;sensor_type;location;lat;lon;timestamp;temperature;humidity
13684;DHT22;6914;53.552;9.908;2023-04-06T00:00:36;4.10;99.90
13684;DHT22;6914;53.552;9.908;2023-04-06T00:03:04;4.00;99.90
13684;DHT22;6914;53.552;9.908;2023-04-06T00:05:31;4.10;99.90
13684;DHT22;6914;53.552;9.908;2023-04-06T00:07:58;3.60;99.90
13684;DHT22;6914;53.552;9.908;2023-04-06T00:10:26;3.90;99.90
13684;DHT22;6914;53.552;9.908;2023-04-06T00:12:54;3.70;99.90
13684;DHT22;6914;53.552;9.908;2023-04-06T00:15:22;3.60;99.90
13684;DHT22;6914;53.552;9.908;2023-04-06T00:17:49;3.80;99.90
13684;DHT22;6914;53.552;9.908;2023-04-06T00:20:17;3.90;99.90
13684;DHT22;6914;53.552;9.908;2023-04-06T00:22:44;4.00;99.90
13684;DHT22;6914;53.552;9.908;2023-04-06T00:25:11;3.80;99.90
13684;DHT22;6914;53.552;9.908;2023-04-06T00:27:41;3.90;99.90
13684;DHT22;6914;53.552;9.908;2023-04-06T00:30:08;3.80;99.90
13684;DHT22;6914;53.552;9.908;2023-04-06T00:32:36;3.80;99.90
13684;DHT22;6914;53.552;9.908;2023-04-06T00:35:03;3.60;99.90
13684;DHT22;6914;53.552;9.908;2023-04-06T00:37:32;3.80;99.90
13684;DHT22;6914;53.552;9.908;2023-04-06T00:39:59;3.70;99.90
13684;DHT22;6914;53.552;9.908;2023-04-06T00:42:25;3.10;99.90
13684;DHT22;6914;53.552;9.908;2023-04-06T00:44:54;3.70;99.90
13684;DHT22;6914;53.552;9.908;2023-04-06T00:47:21;3.40;99.90
13684;DHT22;6914;53.552;9.908;2023-04-06T00:49:49;3.20;99.90
13684;DHT22;6914;53.552;9.908;2023-04-06T00:52:16;3.60;99.90
13684;DHT22;6914;53.552;9.908;2023-04-06T00:54:44;3.40;99.90
13684;DHT22;6914;53.552;9.908;2023-04-06T00:57:11;3.40;99.90
13684;DHT22;6914;53.552;9.908;2023-04-06T00:59:38;3.00;99.90
13684;DHT22;6914;53.552;9.908;2023-04-06T01:02:06;3.30;99.90
13684;DHT22;6914;53.552;9.908;2023-04-06T01:04:33;3.20;99.90
13684;DHT22;6914;53.552;9.908;2023-04-06T01:07:01;3.80;99.90
13684;DHT22;6914;53.552;9.908;2023-04-06T01:09:28;3.30;99.90
13684;DHT22;6914;53.552;9.908;2023-04-06T01:11:56;3.60;99.90
13684;DHT22;6914;53.552;9.908;2023-04-06T01:14:24;3.70;99.90
13684;DHT22;6914;53.552;9.908;2023-04-06T01:16:53;3.30;99.90
13684;DHT22;6914;53.552;9.908;2023-04-06T01:19:20;3.00;99.90
13684;DHT22;6914;53.552;9.908;2023-04-06T01:21:49;2.60;99.90
13684;DHT22;6914;53.552;9.908;2023-04-06T01:24:20;2.90;99.90
13684;DHT22;6914;53.552;9.908;2023-04-06T01:26:48;2.90;99.90
13684;DHT22;6914;53.552;9.908;2023-04-06T01:29:15;3.30;99.90
13684;DHT22;6914;53.552;9.908;2023-04-06T01:31:42;2.90;99.90
13684;DHT22;6914;53.552;9.908;2023-04-06T01:34:08;3.30;99.90
13684;DHT22;6914;53.552;9.908;2023-04-06T01:36:35;2.60;99.90
13684;DHT22;6914;53.552;9.908;2023-04-06T01:39:02;3.00;99.90
13684;DHT22;6914;53.552;9.908;2023-04-06T01:41:30;2.60;99.90
13684;DHT22;6914;53.552;9.908;2023-04-06T01:43:57;3.10;99.90
13684;DHT22;6914;53.552;9.908;2023-04-06T01:46:24;3.50;99.90
13684;DHT22;6914;53.552;9.908;2023-04-06T01:48:51;3.00;99.90
13684;DHT22;6914;53.552;9.908;2023-04-06T01:51:21;2.80;99.90
13684;DHT22;6914;53.552;9.908;2023-04-06T01:53:48;2.50;99.90
13684;DHT22;6914;53.552;9.908;2023-04-06T01:56:19;3.10;99.90
13684;DHT22;6914;53.552;9.908;2023-04-06T01:58:47;2.90;99.90
13684;DHT22;6914;53.552;9.908;2023-04-06T02:01:15;2.80;99.90
13684;DHT22;6914;53.552;9.908;2023-04-06T02:03:41;3.10;99.90
13684;DHT22;6914;53.552;9.908;2023-04-06T02:06:08;2.70;99.90
13684;DHT22;6914;53.552;9.908;2023-04-06T02:08:35;2.80;99.90
13684;DHT22;6914;53.552;9.908;2023-04-06T02:11:01;3.10;99.90
13684;DHT22;6914;53.552;9.908;2023-04-06T02:13:28;2.30;99.90
13684;DHT22;6914;53.552;9.908;2023-04-06T02:15:56;3.00;99.90
13684;DHT22;6914;53.552;9.908;2023-04-06T02:18:23;2.50;99.90
13684;DHT22;6914;53.552;9.908;2023-04-06T02:20:50;2.70;99.90
13684;DHT22;6914;53.552;9.908;2023-04-06T02:23:17;2.00;99.90
13684;DHT22;6914;53.552;9.908;2023-04-06T02:25:44;2.50;99.90
13684;DHT22;6914;53.552;9.908;2023-04-06T02:28:11;3.10;99.90
13684;DHT22;6914;53.552;9.908;2023-04-06T02:30:38;3.00;99.90
13684;DHT22;6914;53.552;9.908;2023-04-06T02:33:06;2.20;99.90
13684;DHT22;6914;53.552;9.908;2023-04-06T02:35:33;2.70;99.90
13684;DHT22;6914;53.552;9.908;2023-04-06T02:37:59;2.80;99.90
13684;DHT22;6914;53.552;9.908;2023-04-06T02:40:26;2.60;99.90
13684;DHT22;6914;53.552;9.908;2023-04-06T02:42:56;2.50;99.90
13684;DHT22;6914;53.552;9.908;2023-04-06T02:45:22;2.70;99.90
13684;DHT22;6914;53.552;9.908;2023-04-06T02:47:55;2.70;99.90
13684;DHT22;6914;53.552;9.908;2023-04-06T02:50:23;2.50;99.90
13684;DHT22;6914;53.552;9.908;2023-04-06T02:52:52;2.80;99.90
13684;DHT22;6914;53.552;9.908;2023-04-06T02:55:21;2.60;99.90
13684;DHT22;6914;53.552;9.908;2023-04-06T02:57:47;2.70;99.90
13684;DHT22;6914;53.552;9.908;2023-04-06T03:00:15;2.10;99.90
13684;DHT22;6914;53.552;9.908;2023-04-06T03:02:42;2.70;99.90
13684;DHT22;6914;53.552;9.908;2023-04-06T03:05:08;2.40;99.90
13684;DHT22;6914;53.552;9.908;2023-04-06T03:07:36;2.50;99.90
13684;DHT22;6914;53.552;9.908;2023-04-06T03:10:04;2.60;99.90
13684;DHT22;6914;53.552;9.908;2023-04-06T03:12:31;2.60;99.90
13684;DHT22;6914;53.552;9.908;2023-04-06T03:14:58;2.60;99.90
13684;DHT22;6914;53.552;9.908;2023-04-06T03:17:26;2.40;99.90
13684;DHT22;6914;53.552;9.908;2023-04-06T03:19:52;2.50;99.90
13684;DHT22;6914;53.552;9.908;2023-04-06T03:22:21;2.60;99.90
13684;DHT22;6914;53.552;9.908;2023-04-06T03:24:49;2.40;99.90
13684;DHT22;6914;53.552;9.908;2023-04-06T03:27:17;2.30;99.90
13684;DHT22;6914;53.552;9.908;2023-04-06T03:29:44;2.10;99.90
13684;DHT22;6914;53.552;9.908;2023-04-06T03:32:11;2.40;99.90
13684;DHT22;6914;53.552;9.908;2023-04-06T03:34:38;2.20;99.90
13684;DHT22;6914;53.552;9.908;2023-04-06T03:37:05;1.70;99.90
13684;DHT22;6914;53.552;9.908;2023-04-06T03:39:32;2.00;99.90
13684;DHT22;6914;53.552;9.908;2023-04-06T03:42:00;2.20;99.90
13684;DHT22;6914;53.552;9.908;2023-04-06T03:44:27;1.90;99.90
13684;DHT22;6914;53.552;9.908;2023-04-06T03:46:55;1.50;99.90
13684;DHT22;6914;53.552;9.908;2023-04-06T03:49:22;2.10;99.90
13684;DHT22;6914;53.552;9.908;2023-04-06T03:51:49;2.90;99.90
13684;DHT22;6914;53.552;9.908;2023-04-06T03:54:16;1.90;99.90
13684;DHT22;6914;53.552;9.908;2023-04-06T03:56:42;2.20;99.90
13684;DHT22;6914;53.552;9.908;2023-04-06T03:59:11;1.70;99.90
13684;DHT22;6914;53.552;9.908;2023-04-06T04:01:37;1.90;99.90
13684;DHT22;6914;53.552;9.908;2023-04-06T04:04:05;1.80;99.90
13684;DHT22;6914;53.552;9.908;2023-04-06T04:06:31;1.90;99.90
13684;DHT22;6914;53.552;9.908;2023-04-06T04:08:58;1.20;99.90
13684;DHT22;6914;53.552;9.908;2023-04-06T04:11:25;1.70;99.90
13684;DHT22;6914;53.552;9.908;2023-04-06T04:13:53;1.70;99.90
13684;DHT22;6914;53.552;9.908;2023-04-06T04:16:24;1.70;99.90
13684;DHT22;6914;53.552;9.908;2023-04-06T04:18:50;1.80;99.90
13684;DHT22;6914;53.552;9.908;2023-04-06T04:21:17;1.60;99.90
13684;DHT22;6914;53.552;9.908;2023-04-06T04:23:44;1.80;99.90
13684;DHT22;6914;53.552;9.908;2023-04-06T04:26:11;1.40;99.90
13684;DHT22;6914;53.552;9.908;2023-04-06T04:28:38;0.30;99.90
13684;DHT22;6914;53.552;9.908;2023-04-06T04:31:04;1.70;99.90
13684;DHT22;6914;53.552;9.908;2023-04-06T04:33:32;1.70;99.90
13684;DHT22;6914;53.552;9.908;2023-04-06T04:35:59;1.70;99.90
13684;DHT22;6914;53.552;9.908;2023-04-06T04:38:26;1.20;99.90
13684;DHT22;6914;53.552;9.908;2023-04-06T04:40:55;1.60;99.90
13684;DHT22;6914;53.552;9.908;2023-04-06T04:43:25;1.70;99.90
13684;DHT22;6914;53.552;9.908;2023-04-06T04:45:52;1.60;99.90
13684;DHT22;6914;53.552;9.908;2023-04-06T04:48:19;1.70;99.90
13684;DHT22;6914;53.552;9.908;2023-04-06T04:50:47;1.50;99.90
13684;DHT22;6914;53.552;9.908;2023-04-06T04:53:14;1.70;99.90
13684;DHT22;6914;53.552;9.908;2023-04-06T04:55:41;1.40;99.90
13684;DHT22;6914;53.552;9.908;2023-04-06T04:58:07;1.70;99.90
13684;DHT22;6914;53.552;9.908;2023-04-06T05:00:39;1.90;99.90
13684;DHT22;6914;53.552;9.908;2023-04-06T05:03:06;1.80;99.90
13684;DHT22;6914;53.552;9.908;2023-04-06T05:05:33;1.80;99.90
13684;DHT22;6914;53.552;9.908;2023-04-06T05:08:02;1.80;99.90
13684;DHT22;6914;53.552;9.908;2023-04-06T05:10:28;1.70;99.90
13684;DHT22;6914;53.552;9.908;2023-04-06T05:12:55;2.00;99.90
13684;DHT22;6914;53.552;9.908;2023-04-06T05:15:24;1.50;99.90
13684;DHT22;6914;53.552;9.908;2023-04-06T05:17:51;1.80;99.90
13684;DHT22;6914;53.552;9.908;2023-04-06T05:20:18;1.60;99.90
13684;DHT22;6914;53.552;9.908;2023-04-06T05:22:45;1.50;99.90
13684;DHT22;6914;53.552;9.908;2023-04-06T05:25:13;1.80;99.90
13684;DHT22;6914;53.552;9.908;2023-04-06T05:27:40;1.50;99.90
13684;DHT22;6914;53.552;9.908;2023-04-06T05:30:08;2.90;99.90
13684;DHT22;6914;53.552;9.908;2023-04-06T05:32:35;1.80;99.90
13684;DHT22;6914;53.552;9.908;2023-04-06T05:35:01;1.70;99.90
13684;DHT22;6914;53.552;9.908;2023-04-06T05:37:28;1.80;99.90
13684;DHT22;6914;53.552;9.908;2023-04-06T05:39:57;1.80;99.90
13684;DHT22;6914;53.552;9.908;2023-04-06T05:42:25;1.90;99.90
13684;DHT22;6914;53.552;9.908;2023-04-06T05:44:53;2.20;99.90
13684;DHT22;6914;53.552;9.908;2023-04-06T05:47:22;1.90;99.90
13684;DHT22;6914;53.552;9.908;2023-04-06T05:49:49;2.00;99.90
13684;DHT22;6914;53.552;9.908;2023-04-06T05:52:16;2.10;99.90
13684;DHT22;6914;53.552;9.908;2023-04-06T05:54:43;1.90;99.90
13684;DHT22;6914;53.552;9.908;2023-04-06T05:57:10;2.40;99.90
13684;DHT22;6914;53.552;9.908;2023-04-06T05:59:38;2.20;99.90
13684;DHT22;6914;53.552;9.908;2023-04-06T06:02:05;2.20;99.90
13684;DHT22;6914;53.552;9.908;2023-04-06T06:04:31;2.10;99.90
13684;DHT22;6914;53.552;9.908;2023-04-06T06:06:59;2.30;99.90
13684;DHT22;6914;53.552;9.908;2023-04-06T06:09:26;2.30;99.90
13684;DHT22;6914;53.552;9.908;2023-04-06T06:11:53;2.40;99.90
13684;DHT22;6914;53.552;9.908;2023-04-06T06:14:19;2.50;99.90
13684;DHT22;6914;53.552;9.908;2023-04-06T06:16:48;1.90;99.90
13684;DHT22;6914;53.552;9.908;2023-04-06T06:19:15;2.50;99.90
13684;DHT22;6914;53.552;9.908;2023-04-06T06:21:42;2.90;99.90
13684;DHT22;6914;53.552;9.908;2023-04-06T06:24:09;2.70;99.90
13684;DHT22;6914;53.552;9.908;2023-04-06T06:26:35;2.90;99.90
13684;DHT22;6914;53.552;9.908;2023-04-06T06:29:04;2.80;99.90
13684;DHT22;6914;53.552;9.908;2023-04-06T06:31:31;2.90;99.90
13684;DHT22;6914;53.552;9.908;2023-04-06T06:34:01;3.00;99.90
13684;DHT22;6914;53.552;9.908;2023-04-06T06:36:29;2.90;99.90
13684;DHT22;6914;53.552;9.908;2023-04-06T06:38:58;3.00;99.90
13684;DHT22;6914;53.552;9.908;2023-04-06T06:41:26;3.10;99.90
13684;DHT22;6914;53.552;9.908;2023-04-06T06:43:52;2.60;99.90
13684;DHT22;6914;53.552;9.908;2023-04-06T06:46:20;3.20;99.90
13684;DHT22;6914;53.552;9.908;2023-04-06T06:48:47;3.00;99.90
13684;DHT22;6914;53.552;9.908;2023-04-06T06:51:15;3.10;99.90
13684;DHT22;6914;53.552;9.908;2023-04-06T06:53:42;3.30;99.90
13684;DHT22;6914;53.552;9.908;2023-04-06T06:56:09;3.30;99.90
13684;DHT22;6914;53.552;9.908;2023-04-06T06:58:35;4.30;99.90
13684;DHT22;6914;53.552;9.908;2023-04-06T07:01:03;3.90;99.90
13684;DHT22;6914;53.552;9.908;2023-04-06T07:03:30;3.40;99.90
13684;DHT22;6914;53.552;9.908;2023-04-06T07:05:59;2.70;99.90
13684;DHT22;6914;53.552;9.908;2023-04-06T07:08:27;3.60;99.90
13684;DHT22;6914;53.552;9.908;2023-04-06T07:10:54;3.30;99.90
13684;DHT22;6914;53.552;9.908;2023-04-06T07:13:24;3.50;99.90
13684;DHT22;6914;53.552;9.908;2023-04-06T07:15:53;3.60;99.90
13684;DHT22;6914;53.552;9.908;2023-04-06T07:18:20;3.50;99.90
13684;DHT22;6914;53.552;9.908;2023-04-06T07:20:47;3.70;99.90
13684;DHT22;6914;53.552;9.908;2023-04-06T07:23:14;3.80;99.90
13684;DHT22;6914;53.552;9.908;2023-04-06T07:25:42;3.90;99.90
13684;DHT22;6914;53.552;9.908;2023-04-06T07:28:10;3.80;99.90
13684;DHT22;6914;53.552;9.908;2023-04-06T07:30:37;4.00;99.90
13684;DHT22;6914;53.552;9.908;2023-04-06T07:33:04;4.00;99.90
13684;DHT22;6914;53.552;9.908;2023-04-06T07:35:31;3.90;99.90
13684;DHT22;6914;53.552;9.908;2023-04-06T07:38:00;4.30;99.90
13684;DHT22;6914;53.552;9.908;2023-04-06T07:40:26;4.20;99.90
13684;DHT22;6914;53.552;9.908;2023-04-06T07:42:56;4.10;99.90
13684;DHT22;6914;53.552;9.908;2023-04-06T07:45:25;4.50;99.90
13684;DHT22;6914;53.552;9.908;2023-04-06T07:47:51;4.60;99.90
13684;DHT22;6914;53.552;9.908;2023-04-06T07:50:18;4.60;99.90
13684;DHT22;6914;53.552;9.908;2023-04-06T07:52:45;5.00;99.90
13684;DHT22;6914;53.552;9.908;2023-04-06T07:55:12;4.90;99.90
13684;DHT22;6914;53.552;9.908;2023-04-06T07:57:39;4.20;99.90
13684;DHT22;6914;53.552;9.908;2023-04-06T08:00:09;5.00;99.90
13684;DHT22;6914;53.552;9.908;2023-04-06T08:02:36;5.10;99.90
13684;DHT22;6914;53.552;9.908;2023-04-06T08:05:03;5.10;99.90
13684;DHT22;6914;53.552;9.908;2023-04-06T08:07:29;5.60;99.90
13684;DHT22;6914;53.552;9.908;2023-04-06T08:09:57;5.40;99.90
13684;DHT22;6914;53.552;9.908;2023-04-06T08:12:27;5.40;99.90
13684;DHT22;6914;53.552;9.908;2023-04-06T08:14:54;5.50;99.90
13684;DHT22;6914;53.552;9.908;2023-04-06T08:17:23;5.80;99.90
13684;DHT22;6914;53.552;9.908;2023-04-06T08:19:51;5.90;99.90
13684;DHT22;6914;53.552;9.908;2023-04-06T08:22:17;5.90;99.90
13684;DHT22;6914;53.552;9.908;2023-04-06T08:24:44;6.20;99.90
13684;DHT22;6914;53.552;9.908;2023-04-06T08:27:11;6.30;99.90
13684;DHT22;6914;53.552;9.908;2023-04-06T08:29:39;6.00;96.10
13684;DHT22;6914;53.552;9.908;2023-04-06T08:32:06;6.40;86.90
13684;DHT22;6914;53.552;9.908;2023-04-06T08:34:34;6.70;96.20
13684;DHT22;6914;53.552;9.908;2023-04-06T08:37:01;6.80;92.70
13684;DHT22;6914;53.552;9.908;2023-04-06T08:39:28;6.90;95.60
13684;DHT22;6914;53.552;9.908;2023-04-06T08:41:56;6.40;91.10
13684;DHT22;6914;53.552;9.908;2023-04-06T08:44:26;7.10;95.60
13684;DHT22;6914;53.552;9.908;2023-04-06T08:46:54;7.30;83.10
13684;DHT22;6914;53.552;9.908;2023-04-06T08:49:21;7.90;76.10
13684;DHT22;6914;53.552;9.908;2023-04-06T08:51:50;7.40;74.60
13684;DHT22;6914;53.552;9.908;2023-04-06T08:54:18;5.20;67.30
13684;DHT22;6914;53.552;9.908;2023-04-06T08:56:46;7.60;70.30
13684;DHT22;6914;53.552;9.908;2023-04-06T08:59:14;7.90;67.50
13684;DHT22;6914;53.552;9.908;2023-04-06T09:01:42;8.10;65.50
13684;DHT22;6914;53.552;9.908;2023-04-06T09:04:11;8.50;65.70
13684;DHT22;6914;53.552;9.908;2023-04-06T09:06:39;8.60;62.90
13684;DHT22;6914;53.552;9.908;2023-04-06T09:09:07;8.90;62.40
13684;DHT22;6914;53.552;9.908;2023-04-06T09:11:44;9.20;61.60
13684;DHT22;6914;53.552;9.908;2023-04-06T09:14:12;9.20;60.60
13684;DHT22;6914;53.552;9.908;2023-04-06T09:16:40;8.60;60.50
13684;DHT22;6914;53.552;9.908;2023-04-06T09:19:07;9.80;60.50
13684;DHT22;6914;53.552;9.908;2023-04-06T09:21:34;10.30;59.80
13684;DHT22;6914;53.552;9.908;2023-04-06T09:24:02;10.40;56.90
13684;DHT22;6914;53.552;9.908;2023-04-06T09:26:31;10.70;56.50
13684;DHT22;6914;53.552;9.908;2023-04-06T09:29:01;10.50;56.60
13684;DHT22;6914;53.552;9.908;2023-04-06T09:31:30;11.00;55.10
13684;DHT22;6914;53.552;9.908;2023-04-06T09:33:59;10.00;53.70
13684;DHT22;6914;53.552;9.908;2023-04-06T09:36:31;11.50;55.30
13684;DHT22;6914;53.552;9.908;2023-04-06T09:39:02;11.90;54.50
13684;DHT22;6914;53.552;9.908;2023-04-06T09:41:31;12.30;53.60
13684;DHT22;6914;53.552;9.908;2023-04-06T09:44:03;12.20;52.60
13684;DHT22;6914;53.552;9.908;2023-04-06T09:46:32;12.40;52.90
13684;DHT22;6914;53.552;9.908;2023-04-06T09:49:02;12.70;52.10
13684;DHT22;6914;53.552;9.908;2023-04-06T09:51:31;12.60;51.50
13684;DHT22;6914;53.552;9.908;2023-04-06T09:53:59;13.80;51.60
13684;DHT22;6914;53.552;9.908;2023-04-06T09:56:37;13.50;49.40
13684;DHT22;6914;53.552;9.908;2023-04-06T09:59:11;13.40;48.90
13684;DHT22;6914;53.552;9.908;2023-04-06T10:01:39;13.70;48.60
13684;DHT22;6914;53.552;9.908;2023-04-06T10:04:17;15.60;49.10
13684;DHT22;6914;53.552;9.908;2023-04-06T10:06:47;15.40;46.50
13684;DHT22;6914;53.552;9.908;2023-04-06T10:09:18;15.20;46.40
13684;DHT22;6914;53.552;9.908;2023-04-06T10:11:47;15.40;46.00
13684;DHT22;6914;53.552;9.908;2023-04-06T10:14:15;14.50;45.80
13684;DHT22;6914;53.552;9.908;2023-04-06T10:16:42;15.40;46.40
13684;DHT22;6914;53.552;9.908;2023-04-06T10:19:13;15.20;45.30
13684;DHT22;6914;53.552;9.908;2023-04-06T10:21:44;15.50;46.70
13684;DHT22;6914;53.552;9.908;2023-04-06T10:24:13;16.10;45.10
13684;DHT22;6914;53.552;9.908;2023-04-06T10:26:40;15.60;45.20
13684;DHT22;6914;53.552;9.908;2023-04-06T10:29:08;15.80;44.00
13684;DHT22;6914;53.552;9.908;2023-04-06T10:31:40;16.50;44.40
13684;DHT22;6914;53.552;9.908;2023-04-06T10:34:08;16.40;43.10
13684;DHT22;6914;53.552;9.908;2023-04-06T10:36:35;16.30;44.70
13684;DHT22;6914;53.552;9.908;2023-04-06T10:39:05;15.70;43.00
13684;DHT22;6914;53.552;9.908;2023-04-06T10:41:33;16.30;44.90
13684;DHT22;6914;53.552;9.908;2023-04-06T10:44:02;17.00;45.40
13684;DHT22;6914;53.552;9.908;2023-04-06T10:46:31;17.00;42.10
13684;DHT22;6914;53.552;9.908;2023-04-06T10:49:09;16.40;42.90
13684;DHT22;6914;53.552;9.908;2023-04-06T10:51:38;16.90;43.00
13684;DHT22;6914;53.552;9.908;2023-04-06T10:54:05;17.20;43.90
13684;DHT22;6914;53.552;9.908;2023-04-06T10:56:33;16.60;43.20
13684;DHT22;6914;53.552;9.908;2023-04-06T10:59:05;16.80;44.80
13684;DHT22;6914;53.552;9.908;2023-04-06T11:01:34;15.50;42.50
13684;DHT22;6914;53.552;9.908;2023-04-06T11:04:02;15.20;43.70
13684;DHT22;6914;53.552;9.908;2023-04-06T11:06:30;15.50;44.80
13684;DHT22;6914;53.552;9.908;2023-04-06T11:08:58;15.80;44.70
13684;DHT22;6914;53.552;9.908;2023-04-06T11:11:27;16.40;43.80
13684;DHT22;6914;53.552;9.908;2023-04-06T11:13:55;17.00;44.70
13684;DHT22;6914;53.552;9.908;2023-04-06T11:16:24;17.20;43.50
13684;DHT22;6914;53.552;9.908;2023-04-06T11:18:54;16.70;43.20
13684;DHT22;6914;53.552;9.908;2023-04-06T11:21:32;18.50;45.00
13684;DHT22;6914;53.552;9.908;2023-04-06T11:24:06;15.90;42.70
13684;DHT22;6914;53.552;9.908;2023-04-06T11:26:37;15.80;43.10
13684;DHT22;6914;53.552;9.908;2023-04-06T11:29:05;16.20;43.90
13684;DHT22;6914;53.552;9.908;2023-04-06T11:31:36;18.40;45.60
13684;DHT22;6914;53.552;9.908;2023-04-06T11:34:10;16.70;42.60
13684;DHT22;6914;53.552;9.908;2023-04-06T11:36:40;16.80;42.60
13684;DHT22;6914;53.552;9.908;2023-04-06T11:39:08;16.60;42.00
13684;DHT22;6914;53.552;9.908;2023-04-06T11:41:35;16.20;41.70
13684;DHT22;6914;53.552;9.908;2023-04-06T11:44:03;16.90;43.40
13684;DHT22;6914;53.552;9.908;2023-04-06T11:46:32;16.70;42.80
13684;DHT22;6914;53.552;9.908;2023-04-06T11:48:59;16.20;43.30
13684;DHT22;6914;53.552;9.908;2023-04-06T11:51:28;16.90;42.40
13684;DHT22;6914;53.552;9.908;2023-04-06T11:53:55;16.60;42.00
13684;DHT22;6914;53.552;9.908;2023-04-06T11:56:24;18.40;44.50
13684;DHT22;6914;53.552;9.908;2023-04-06T11:58:51;16.50;42.90
13684;DHT22;6914;53.552;9.908;2023-04-06T12:01:18;16.00;42.20
13684;DHT22;6914;53.552;9.908;2023-04-06T12:03:45;15.40;44.10
13684;DHT22;6914;53.552;9.908;2023-04-06T12:06:12;16.40;44.90
13684;DHT22;6914;53.552;9.908;2023-04-06T12:08:40;16.40;43.20
13684;DHT22;6914;53.552;9.908;2023-04-06T12:11:07;16.60;41.60
13684;DHT22;6914;53.552;9.908;2023-04-06T12:13:34;16.80;44.30
13684;DHT22;6914;53.552;9.908;2023-04-06T12:16:02;19.70;45.80
13684;DHT22;6914;53.552;9.908;2023-04-06T12:18:32;17.70;42.50
13684;DHT22;6914;53.552;9.908;2023-04-06T12:20:59;17.60;42.60
13684;DHT22;6914;53.552;9.908;2023-04-06T12:23:26;17.10;42.50
13684;DHT22;6914;53.552;9.908;2023-04-06T12:25:54;16.30;43.60
13684;DHT22;6914;53.552;9.908;2023-04-06T12:28:21;16.00;42.10
13684;DHT22;6914;53.552;9.908;2023-04-06T12:30:52;15.50;43.70
13684;DHT22;6914;53.552;9.908;2023-04-06T12:33:20;15.10;43.50
13684;DHT22;6914;53.552;9.908;2023-04-06T12:35:47;15.90;44.40
13684;DHT22;6914;53.552;9.908;2023-04-06T12:38:14;17.10;46.40
13684;DHT22;6914;53.552;9.908;2023-04-06T12:40:41;16.70;42.50
13684;DHT22;6914;53.552;9.908;2023-04-06T12:43:10;16.10;43.60
13684;DHT22;6914;53.552;9.908;2023-04-06T12:45:38;16.20;43.60
13684;DHT22;6914;53.552;9.908;2023-04-06T12:48:06;16.40;44.90
13684;DHT22;6914;53.552;9.908;2023-04-06T12:50:35;16.10;43.00
13684;DHT22;6914;53.552;9.908;2023-04-06T12:53:02;16.10;44.60
13684;DHT22;6914;53.552;9.908;2023-04-06T12:55:30;16.00;44.80
13684;DHT22;6914;53.552;9.908;2023-04-06T12:57:59;16.70;44.10
13684;DHT22;6914;53.552;9.908;2023-04-06T13:00:28;16.50;42.50
13684;DHT22;6914;53.552;9.908;2023-04-06T13:02:56;16.60;43.70
13684;DHT22;6914;53.552;9.908;2023-04-06T13:05:22;15.70;42.50
13684;DHT22;6914;53.552;9.908;2023-04-06T13:07:49;13.80;40.90
13684;DHT22;6914;53.552;9.908;2023-04-06T13:10:16;16.00;44.40
13684;DHT22;6914;53.552;9.908;2023-04-06T13:12:43;15.70;43.70
13684;DHT22;6914;53.552;9.908;2023-04-06T13:15:10;16.10;45.80
13684;DHT22;6914;53.552;9.908;2023-04-06T13:17:38;15.30;42.50
13684;DHT22;6914;53.552;9.908;2023-04-06T13:20:09;14.70;42.70
13684;DHT22;6914;53.552;9.908;2023-04-06T13:22:36;14.50;43.50
13684;DHT22;6914;53.552;9.908;2023-04-06T13:25:03;14.10;44.90
13684;DHT22;6914;53.552;9.908;2023-04-06T13:27:30;14.90;44.00
13684;DHT22;6914;53.552;9.908;2023-04-06T13:29:59;14.60;44.00
13684;DHT22;6914;53.552;9.908;2023-04-06T13:32:26;14.40;44.30
13684;DHT22;6914;53.552;9.908;2023-04-06T13:34:56;14.70;44.70
13684;DHT22;6914;53.552;9.908;2023-04-06T13:37:22;16.00;43.20
13684;DHT22;6914;53.552;9.908;2023-04-06T13:39:49;14.80;44.10
13684;DHT22;6914;53.552;9.908;2023-04-06T13:42:16;14.70;41.70
13684;DHT22;6914;53.552;9.908;2023-04-06T13:44:43;15.10;43.70
13684;DHT22;6914;53.552;9.908;2023-04-06T13:47:12;14.70;41.40
13684;DHT22;6914;53.552;9.908;2023-04-06T13:49:39;15.80;44.40
13684;DHT22;6914;53.552;9.908;2023-04-06T13:52:10;14.50;43.30
13684;DHT22;6914;53.552;9.908;2023-04-06T13:54:37;12.30;40.60
13684;DHT22;6914;53.552;9.908;2023-04-06T13:57:04;14.50;42.60
13684;DHT22;6914;53.552;9.908;2023-04-06T13:59:33;14.90;43.30
13684;DHT22;6914;53.552;9.908;2023-04-06T14:02:00;14.60;43.20
13684;DHT22;6914;53.552;9.908;2023-04-06T14:04:27;14.40;43.00
13684;DHT22;6914;53.552;9.908;2023-04-06T14:06:54;14.20;43.00
13684;DHT22;6914;53.552;9.908;2023-04-06T14:09:22;14.20;43.00
13684;DHT22;6914;53.552;9.908;2023-04-06T14:11:50;14.10;43.70
13684;DHT22;6914;53.552;9.908;2023-04-06T14:14:17;14.20;43.20
13684;DHT22;6914;53.552;9.908;2023-04-06T14:16:44;14.10;42.90
13684;DHT22;6914;53.552;9.908;2023-04-06T14:19:12;14.80;44.60
13684;DHT22;6914;53.552;9.908;2023-04-06T14:21:39;14.20;43.30
13684;DHT22;6914;53.552;9.908;2023-04-06T14:24:08;14.40;44.20
13684;DHT22;6914;53.552;9.908;2023-04-06T14:26:38;14.10;42.80
13684;DHT22;6914;53.552;9.908;2023-04-06T14:29:07;14.40;42.90
13684;DHT22;6914;53.552;9.908;2023-04-06T14:31:42;13.80;44.00
13684;DHT22;6914;53.552;9.908;2023-04-06T14:34:12;14.00;44.40
13684;DHT22;6914;53.552;9.908;2023-04-06T14:36:39;13.90;42.90
13684;DHT22;6914;53.552;9.908;2023-04-06T14:39:06;13.40;45.10
13684;DHT22;6914;53.552;9.908;2023-04-06T14:41:34;13.50;43.90
13684;DHT22;6914;53.552;9.908;2023-04-06T14:44:03;13.70;44.00
13684;DHT22;6914;53.552;9.908;2023-04-06T14:46:30;13.80;46.90
13684;DHT22;6914;53.552;9.908;2023-04-06T14:48:58;13.50;45.60
13684;DHT22;6914;53.552;9.908;2023-04-06T14:51:25;13.80;44.90
13684;DHT22;6914;53.552;9.908;2023-04-06T14:53:53;13.80;47.90
13684;DHT22;6914;53.552;9.908;2023-04-06T14:56:21;13.40;45.90
13684;DHT22;6914;53.552;9.908;2023-04-06T14:58:48;12.10;44.60
13684;DHT22;6914;53.552;9.908;2023-04-06T15:01:17;13.90;45.40
13684;DHT22;6914;53.552;9.908;2023-04-06T15:03:44;14.20;45.10
13684;DHT22;6914;53.552;9.908;2023-04-06T15:06:15;13.90;45.90
13684;DHT22;6914;53.552;9.908;2023-04-06T15:08:43;13.80;43.50
13684;DHT22;6914;53.552;9.908;2023-04-06T15:11:14;13.60;43.00
13684;DHT22;6914;53.552;9.908;2023-04-06T15:13:41;13.70;44.00
13684;DHT22;6914;53.552;9.908;2023-04-06T15:16:09;14.20;46.70
13684;DHT22;6914;53.552;9.908;2023-04-06T15:18:41;13.60;45.40
13684;DHT22;6914;53.552;9.908;2023-04-06T15:21:11;13.20;45.70
13684;DHT22;6914;53.552;9.908;2023-04-06T15:23:40;13.00;44.70
13684;DHT22;6914;53.552;9.908;2023-04-06T15:26:07;13.90;46.10
13684;DHT22;6914;53.552;9.908;2023-04-06T15:28:36;13.60;46.90
13684;DHT22;6914;53.552;9.908;2023-04-06T15:31:13;13.30;47.10
13684;DHT22;6914;53.552;9.908;2023-04-06T15:33:42;13.50;46.10
13684;DHT22;6914;53.552;9.908;2023-04-06T15:36:22;13.30;46.60
13684;DHT22;6914;53.552;9.908;2023-04-06T15:38:50;13.60;45.10
13684;DHT22;6914;53.552;9.908;2023-04-06T15:41:17;12.30;43.80
13684;DHT22;6914;53.552;9.908;2023-04-06T15:43:44;13.60;46.30
13684;DHT22;6914;53.552;9.908;2023-04-06T15:46:11;13.70;46.40
13684;DHT22;6914;53.552;9.908;2023-04-06T15:48:42;13.50;46.40
13684;DHT22;6914;53.552;9.908;2023-04-06T15:51:09;13.30;46.70
13684;DHT22;6914;53.552;9.908;2023-04-06T15:53:38;13.20;48.20
13684;DHT22;6914;53.552;9.908;2023-04-06T15:56:06;13.30;47.30
13684;DHT22;6914;53.552;9.908;2023-04-06T15:58:34;13.20;47.90